createdAt,value
2023-02-12T00:00:16.312Z,10.00
2023-02-12T00:01:16.459Z,9.60
2023-02-12T00:02:16.652Z,11.10
2023-02-12T00:03:16.836Z,8.30
2023-02-12T00:04:16.970Z,10.50
2023-02-12T00:05:17.161Z,8.60
2023-02-12T00:06:17.342Z,10.40
2023-02-12T00:07:17.470Z,11.90
2023-02-12T00:08:17.648Z,11.50
2023-02-12T00:09:17.824Z,9.40
2023-02-12T00:10:17.979Z,10.40
2023-02-12T00:11:18.174Z,9.40
2023-02-12T00:12:18.328Z,14.50
2023-02-12T00:13:18.506Z,8.30
2023-02-12T00:14:18.671Z,10.20
2023-02-12T00:15:18.858Z,9.40
2023-02-12T00:16:19.165Z,12.60
2023-02-12T00:17:19.200Z,11.40
2023-02-12T00:18:19.383Z,12.70
2023-02-12T00:19:19.566Z,10.20
2023-02-12T00:20:19.748Z,12.20
2023-02-12T00:21:19.941Z,11.80
2023-02-12T00:22:20.116Z,8.40
2023-02-12T00:23:20.277Z,9.30
2023-02-12T00:24:20.455Z,5.50
2023-02-12T00:25:20.606Z,7.30
2023-02-12T00:26:20.782Z,5.60
2023-02-12T00:27:20.937Z,9.60
2023-02-12T00:28:21.135Z,7.00
2023-02-12T00:29:21.270Z,9.30
2023-02-12T00:30:21.463Z,9.00
2023-02-12T00:31:21.793Z,8.90
2023-02-12T00:32:21.806Z,6.40
2023-02-12T00:33:21.966Z,8.00
2023-02-12T00:34:22.130Z,10.40
2023-02-12T00:35:22.312Z,11.20
2023-02-12T00:36:22.503Z,12.40
2023-02-12T00:37:22.634Z,12.20
2023-02-12T00:38:22.808Z,9.20
2023-02-12T00:39:22.968Z,10.80
2023-02-12T00:40:23.148Z,16.00
2023-02-12T00:41:23.337Z,7.40
2023-02-12T00:42:23.497Z,12.00
2023-02-12T00:43:23.667Z,13.70
2023-02-12T00:44:23.850Z,5.70
2023-02-12T00:45:24.008Z,6.60
2023-02-12T00:46:24.267Z,9.50
2023-02-12T00:47:24.346Z,10.10
2023-02-12T00:48:24.517Z,11.50
2023-02-12T00:49:24.686Z,11.10
2023-02-12T00:50:24.874Z,11.80
2023-02-12T00:51:25.061Z,10.90
2023-02-12T00:52:25.227Z,8.60
2023-02-12T00:53:25.392Z,9.10
2023-02-12T00:54:25.555Z,9.80
2023-02-12T00:55:25.708Z,9.10
2023-02-12T00:56:25.915Z,8.40
2023-02-12T00:57:26.059Z,11.50
2023-02-12T00:58:26.236Z,10.60
2023-02-12T00:59:26.399Z,10.10
2023-02-12T01:00:26.575Z,11.20
2023-02-12T01:01:26.781Z,9.90
2023-02-12T01:02:26.915Z,10.40
2023-02-12T01:03:27.088Z,9.30
2023-02-12T01:04:27.247Z,8.60
2023-02-12T01:05:27.452Z,10.50
2023-02-12T01:06:27.640Z,9.80
2023-02-12T01:07:27.776Z,8.30
2023-02-12T01:08:27.948Z,10.50
2023-02-12T01:09:28.110Z,10.60
2023-02-12T01:10:28.280Z,11.60
2023-02-12T01:11:28.459Z,6.60
2023-02-12T01:12:28.628Z,7.70
2023-02-12T01:13:28.781Z,8.90
2023-02-12T01:14:28.950Z,8.40
2023-02-12T01:15:29.111Z,9.50
2023-02-12T01:16:29.435Z,7.10
2023-02-12T01:17:29.439Z,8.30
2023-02-12T01:18:29.609Z,8.40
2023-02-12T01:19:29.770Z,7.30
2023-02-12T01:20:29.940Z,7.80
2023-02-12T01:21:30.140Z,10.40
2023-02-12T01:22:30.289Z,7.30
2023-02-12T01:23:30.450Z,8.90
2023-02-12T01:24:30.610Z,8.80
2023-02-12T01:25:30.788Z,12.10
2023-02-12T01:26:30.963Z,8.90
2023-02-12T01:27:31.117Z,9.60
2023-02-12T01:28:31.390Z,11.70
2023-02-12T01:29:31.480Z,9.20
2023-02-12T01:30:31.663Z,9.30
2023-02-12T01:31:31.953Z,12.00
2023-02-12T01:32:31.990Z,7.90
2023-02-12T01:33:32.152Z,11.60
2023-02-12T01:34:32.329Z,13.00
2023-02-12T01:35:32.512Z,11.10
2023-02-12T01:36:32.715Z,4.70
2023-02-12T01:37:32.869Z,13.50
2023-02-12T01:38:33.039Z,13.30
2023-02-12T01:39:33.223Z,8.10
2023-02-12T01:40:33.379Z,8.30
2023-02-12T01:41:33.559Z,7.70
2023-02-12T01:42:33.719Z,10.20
2023-02-12T01:43:33.899Z,10.70
2023-02-12T01:44:34.069Z,8.50
2023-02-12T01:45:34.240Z,10.70
2023-02-12T01:46:34.461Z,7.80
2023-02-12T01:47:34.599Z,12.70
2023-02-12T01:48:34.772Z,9.90
2023-02-12T01:49:34.936Z,9.20
2023-02-12T01:50:35.099Z,8.90
2023-02-12T01:51:35.268Z,12.50
2023-02-12T01:52:35.454Z,12.20
2023-02-12T01:53:35.640Z,8.60
2023-02-12T01:54:35.788Z,6.80
2023-02-12T01:55:35.958Z,12.60
2023-02-12T01:56:36.149Z,9.40
2023-02-12T01:57:36.309Z,13.40
2023-02-12T01:58:36.487Z,10.20
2023-02-12T01:59:36.658Z,8.90
2023-02-12T02:00:36.827Z,6.90
2023-02-12T02:01:37.069Z,11.40
2023-02-12T02:02:37.151Z,12.00
2023-02-12T02:03:37.377Z,11.00
2023-02-12T02:04:37.503Z,13.70
2023-02-12T02:05:37.682Z,11.70
2023-02-12T02:06:37.858Z,11.40
2023-02-12T02:07:38.041Z,9.00
2023-02-12T02:08:38.198Z,13.70
2023-02-12T02:09:38.378Z,9.20
2023-02-12T02:10:38.548Z,9.90
2023-02-12T02:11:38.718Z,11.40
2023-02-12T02:12:38.859Z,10.30
2023-02-12T02:13:39.038Z,11.90
2023-02-12T02:14:39.208Z,9.80
2023-02-12T02:15:39.386Z,10.00
2023-02-12T02:16:39.536Z,10.90
2023-02-12T02:17:39.716Z,11.20
2023-02-12T02:18:39.885Z,7.80
2023-02-12T02:19:40.057Z,11.60
2023-02-12T02:20:40.230Z,9.90
2023-02-12T02:21:40.405Z,14.00
2023-02-12T02:22:40.571Z,11.00
2023-02-12T02:23:40.745Z,10.80
2023-02-12T02:24:40.914Z,7.60
2023-02-12T02:25:41.080Z,13.70
2023-02-12T02:26:41.267Z,11.20
2023-02-12T02:27:41.432Z,12.50
2023-02-12T02:28:41.614Z,13.50
2023-02-12T02:29:41.782Z,10.80
2023-02-12T02:30:42.032Z,9.70
2023-02-12T02:31:42.182Z,9.70
2023-02-12T02:32:42.434Z,11.90
2023-02-12T02:33:42.435Z,8.70
2023-02-12T02:34:42.594Z,10.20
2023-02-12T02:35:42.781Z,12.80
2023-02-12T02:36:58.087Z,11.10
2023-02-12T02:37:44.121Z,7.40
2023-02-12T02:38:43.301Z,10.90
2023-02-12T02:39:43.479Z,17.20
2023-02-12T02:40:43.649Z,10.20
2023-02-12T02:41:43.843Z,10.40
2023-02-12T02:42:44.105Z,11.90
2023-02-12T02:43:44.161Z,10.90
2023-02-12T02:44:44.331Z,10.50
2023-02-12T02:45:44.517Z,16.90
2023-02-12T02:46:44.774Z,6.50
2023-02-12T02:47:44.868Z,11.60
2023-02-12T02:48:45.041Z,10.40
2023-02-12T02:49:45.221Z,8.50
2023-02-12T02:50:45.377Z,10.10
2023-02-12T02:51:45.569Z,13.50
2023-02-12T02:52:45.699Z,10.40
2023-02-12T02:53:45.882Z,9.40
2023-02-12T02:54:46.050Z,9.10
2023-02-12T02:55:46.213Z,20.20
2023-02-12T02:56:46.400Z,11.50
2023-02-12T02:57:46.586Z,10.40
2023-02-12T02:58:46.750Z,13.70
2023-02-12T02:59:46.929Z,9.30
2023-02-12T03:00:47.170Z,14.20
2023-02-12T03:01:47.289Z,14.80
2023-02-12T03:02:47.466Z,15.10
2023-02-12T03:03:47.600Z,13.80
2023-02-12T03:04:47.771Z,11.30
2023-02-12T03:05:47.971Z,11.70
2023-02-12T03:06:48.139Z,13.70
2023-02-12T03:07:48.322Z,10.80
2023-02-12T03:08:48.489Z,13.40
2023-02-12T03:09:48.679Z,10.70
2023-02-12T03:10:48.859Z,11.30
2023-02-12T03:11:49.037Z,14.50
2023-02-12T03:12:49.189Z,17.80
2023-02-12T03:13:49.358Z,10.60
2023-02-12T03:14:49.529Z,9.80
2023-02-12T03:15:49.689Z,13.30
2023-02-12T03:16:49.880Z,17.30
2023-02-12T03:17:50.047Z,11.00
2023-02-12T03:18:50.218Z,14.70
2023-02-12T03:19:50.399Z,13.70
2023-02-12T03:20:50.568Z,15.10
2023-02-12T03:21:50.774Z,14.40
2023-02-12T03:22:50.905Z,10.10
2023-02-12T03:23:51.078Z,17.10
2023-02-12T03:24:51.279Z,9.00
2023-02-12T03:25:51.414Z,11.10
2023-02-12T03:26:51.600Z,13.90
2023-02-12T03:27:51.776Z,17.10
2023-02-12T03:28:51.941Z,12.00
2023-02-12T03:29:52.130Z,14.30
2023-02-12T03:30:52.307Z,14.70
2023-02-12T03:31:52.527Z,11.10
2023-02-12T03:32:52.649Z,14.50
2023-02-12T03:33:52.834Z,11.60
2023-02-12T03:34:53.001Z,12.70
2023-02-12T03:35:53.516Z,13.70
2023-02-12T03:36:53.356Z,13.30
2023-02-12T03:37:53.530Z,11.50
2023-02-12T03:38:53.701Z,13.60
2023-02-12T03:39:53.876Z,11.70
2023-02-12T03:40:54.042Z,16.30
2023-02-12T03:41:54.244Z,11.30
2023-02-12T03:42:54.372Z,18.00
2023-02-12T03:43:54.551Z,12.30
2023-02-12T03:44:54.726Z,9.60
2023-02-12T03:45:55.347Z,14.40
2023-02-12T03:46:55.060Z,10.60
2023-02-12T03:47:55.239Z,16.90
2023-02-12T03:48:55.412Z,14.90
2023-02-12T03:49:55.592Z,9.70
2023-02-12T03:50:55.756Z,11.50
2023-02-12T03:51:55.958Z,6.90
2023-02-12T03:52:56.081Z,12.80
2023-02-12T03:53:56.261Z,11.10
2023-02-12T03:54:56.439Z,9.30
2023-02-12T03:55:56.940Z,12.20
2023-02-12T03:56:56.788Z,13.10
2023-02-12T03:57:56.971Z,14.20
2023-02-12T03:58:57.132Z,15.80
2023-02-12T03:59:57.307Z,17.70
2023-02-12T04:00:57.520Z,13.50
2023-02-12T04:01:57.734Z,15.20
2023-02-12T04:02:57.841Z,14.60
2023-02-12T04:03:58.076Z,17.00
2023-02-12T04:04:58.177Z,12.40
2023-02-12T04:05:58.347Z,11.00
2023-02-12T04:06:58.555Z,10.80
2023-02-12T04:07:58.693Z,19.20
2023-02-12T04:08:58.866Z,15.30
2023-02-12T04:09:59.062Z,14.80
2023-02-12T04:10:59.237Z,18.00
2023-02-12T04:11:59.427Z,16.20
2023-02-12T04:12:59.593Z,7.60
2023-02-12T04:13:59.754Z,16.40
2023-02-12T04:14:59.922Z,14.70
2023-02-12T04:16:00.092Z,15.00
2023-02-12T04:17:00.421Z,13.80
2023-02-12T04:18:00.423Z,10.40
2023-02-12T04:19:00.586Z,11.80
2023-02-12T04:20:00.772Z,20.30
2023-02-12T04:21:00.934Z,19.70
2023-02-12T04:22:01.125Z,13.20
2023-02-12T04:23:01.262Z,14.90
2023-02-12T04:24:01.442Z,9.60
2023-02-12T04:25:01.613Z,16.30
2023-02-12T04:26:01.817Z,21.50
2023-02-12T04:27:01.981Z,11.40
2023-02-12T04:28:02.172Z,12.80
2023-02-12T04:29:02.313Z,15.10
2023-02-12T04:30:02.513Z,13.20
2023-02-12T04:31:02.768Z,14.90
2023-02-12T04:32:02.867Z,14.70
2023-02-12T04:33:03.030Z,12.00
2023-02-12T04:34:03.187Z,19.10
2023-02-12T04:35:03.357Z,16.30
2023-02-12T04:36:03.537Z,17.60
2023-02-12T04:37:03.728Z,12.90
2023-02-12T04:38:03.873Z,14.50
2023-02-12T04:39:04.046Z,13.10
2023-02-12T04:40:04.217Z,11.50
2023-02-12T04:41:04.386Z,17.00
2023-02-12T04:42:04.589Z,11.20
2023-02-12T04:43:04.717Z,13.30
2023-02-12T04:44:04.887Z,16.20
2023-02-12T04:45:05.063Z,13.70
2023-02-12T04:46:05.295Z,17.90
2023-02-12T04:47:05.410Z,16.40
2023-02-12T04:48:05.610Z,14.80
2023-02-12T04:49:05.757Z,15.00
2023-02-12T04:50:05.939Z,14.90
2023-02-12T04:51:06.122Z,13.30
2023-02-12T04:52:06.303Z,18.70
2023-02-12T04:53:06.469Z,17.50
2023-02-12T04:54:06.649Z,14.70
2023-02-12T04:55:06.827Z,13.60
2023-02-12T04:56:06.999Z,13.90
2023-02-12T04:57:07.184Z,14.60
2023-02-12T04:58:07.362Z,15.40
2023-02-12T04:59:07.534Z,16.90
2023-02-12T05:00:07.728Z,15.20
2023-02-12T05:01:07.951Z,17.40
2023-02-12T05:02:08.046Z,20.20
2023-02-12T05:03:08.206Z,11.50
2023-02-12T05:04:08.390Z,11.70
2023-02-12T05:05:08.661Z,16.50
2023-02-12T05:06:08.738Z,14.30
2023-02-12T05:07:08.916Z,15.80
2023-02-12T05:08:09.099Z,13.30
2023-02-12T05:09:09.283Z,15.40
2023-02-12T05:10:09.436Z,14.90
2023-02-12T05:11:09.629Z,15.50
2023-02-12T05:12:09.805Z,14.80
2023-02-12T05:13:09.967Z,16.00
2023-02-12T05:14:10.127Z,16.30
2023-02-12T05:15:10.299Z,10.90
2023-02-12T05:16:10.502Z,13.80
2023-02-12T05:17:10.658Z,10.60
2023-02-12T05:18:10.846Z,20.10
2023-02-12T05:19:11.033Z,13.50
2023-02-12T05:20:11.199Z,14.40
2023-02-12T05:21:11.370Z,17.00
2023-02-12T05:22:11.546Z,23.60
2023-02-12T05:23:11.729Z,16.60
2023-02-12T05:24:11.908Z,16.30
2023-02-12T05:25:12.088Z,14.10
2023-02-12T05:26:12.266Z,11.90
2023-02-12T05:27:12.434Z,17.00
2023-02-12T05:28:12.674Z,13.60
2023-02-12T05:29:12.784Z,12.70
2023-02-12T05:30:12.956Z,15.10
2023-02-12T05:31:13.231Z,15.00
2023-02-12T05:32:13.420Z,10.20
2023-02-12T05:33:13.486Z,14.00
2023-02-12T05:34:13.661Z,16.50
2023-02-12T05:35:13.833Z,16.20
2023-02-12T05:36:14.007Z,12.10
2023-02-12T05:37:14.185Z,13.00
2023-02-12T05:38:14.368Z,15.60
2023-02-12T05:39:14.544Z,16.20
2023-02-12T05:40:14.729Z,15.80
2023-02-12T05:41:14.905Z,15.60
2023-02-12T05:42:15.073Z,17.80
2023-02-12T05:43:15.263Z,11.10
2023-02-12T05:44:15.421Z,12.70
2023-02-12T05:45:15.564Z,15.40
2023-02-12T05:46:15.789Z,19.70
2023-02-12T05:47:15.902Z,24.00
2023-02-12T05:48:16.091Z,17.90
2023-02-12T05:49:16.263Z,8.50
2023-02-12T05:50:16.437Z,13.90
2023-02-12T05:51:16.604Z,9.80
2023-02-12T05:52:16.775Z,13.30
2023-02-12T05:53:16.959Z,12.30
2023-02-12T05:54:17.130Z,12.00
2023-02-12T05:55:17.308Z,10.80
2023-02-12T05:56:17.485Z,15.20
2023-02-12T05:57:17.659Z,16.00
2023-02-12T05:58:17.841Z,11.90
2023-02-12T05:59:18.036Z,10.80
2023-02-12T06:00:18.191Z,12.40
2023-02-12T06:01:18.371Z,8.20
2023-02-12T06:02:18.564Z,14.20
2023-02-12T06:03:18.723Z,9.60
2023-02-12T06:04:18.904Z,10.30
2023-02-12T06:05:19.072Z,5.70
2023-02-12T06:06:19.228Z,7.90
2023-02-12T06:07:19.392Z,16.00
2023-02-12T06:08:19.589Z,11.10
2023-02-12T06:09:19.742Z,5.90
2023-02-12T06:10:19.900Z,10.70
2023-02-12T06:11:20.092Z,11.10
2023-02-12T06:12:20.247Z,15.40
2023-02-12T06:13:20.419Z,12.00
2023-02-12T06:14:20.577Z,14.70
2023-02-12T06:15:20.768Z,12.10
2023-02-12T06:16:21.000Z,12.40
2023-02-12T06:17:21.109Z,12.90
2023-02-12T06:18:21.278Z,18.90
2023-02-12T06:19:21.466Z,13.00
2023-02-12T06:20:21.606Z,8.30
2023-02-12T06:21:21.789Z,11.50
2023-02-12T06:22:21.949Z,9.50
2023-02-12T06:23:22.137Z,8.80
2023-02-12T06:24:22.336Z,7.10
2023-02-12T06:25:22.486Z,12.50
2023-02-12T06:26:22.658Z,10.00
2023-02-12T06:27:22.818Z,11.20
2023-02-12T06:28:23.084Z,9.00
2023-02-12T06:29:23.168Z,14.20
2023-02-12T06:30:23.318Z,9.70
2023-02-12T06:31:23.546Z,7.20
2023-02-12T06:32:23.641Z,19.60
2023-02-12T06:33:23.839Z,16.30
2023-02-12T06:34:23.999Z,14.60
2023-02-12T06:35:24.151Z,15.50
2023-02-12T06:36:24.332Z,9.10
2023-02-12T06:37:24.480Z,11.80
2023-02-12T06:38:24.765Z,16.40
2023-02-12T06:39:24.862Z,13.50
2023-02-12T06:40:25.020Z,13.60
2023-02-12T06:41:25.212Z,14.10
2023-02-12T06:42:25.375Z,12.40
2023-02-12T06:43:25.560Z,11.10
2023-02-12T06:44:25.847Z,15.40
2023-02-12T06:45:25.918Z,11.40
2023-02-12T06:46:26.107Z,12.40
2023-02-12T06:47:26.271Z,10.60
2023-02-12T06:48:26.440Z,15.50
2023-02-12T06:49:26.621Z,13.00
2023-02-12T06:50:26.788Z,17.30
2023-02-12T06:51:26.983Z,12.00
2023-02-12T06:52:27.142Z,15.90
2023-02-12T06:53:27.335Z,14.70
2023-02-12T06:54:27.499Z,17.10
2023-02-12T06:55:27.671Z,15.40
2023-02-12T06:56:27.851Z,14.90
2023-02-12T06:57:28.042Z,13.10
2023-02-12T06:58:28.212Z,9.80
2023-02-12T06:59:28.421Z,19.30
2023-02-12T07:00:28.604Z,14.10
2023-02-12T07:01:28.766Z,18.10
2023-02-12T07:02:28.922Z,14.60
2023-02-12T07:03:29.143Z,16.40
2023-02-12T07:04:29.301Z,12.90
2023-02-12T07:05:29.480Z,19.40
2023-02-12T07:06:29.630Z,16.80
2023-02-12T07:07:29.830Z,14.00
2023-02-12T07:08:30.001Z,14.50
2023-02-12T07:09:30.160Z,14.50
2023-02-12T07:10:30.345Z,10.90
2023-02-12T07:11:30.502Z,13.50
2023-02-12T07:12:30.694Z,15.40
2023-02-12T07:13:30.864Z,14.70
2023-02-12T07:14:31.030Z,14.10
2023-02-12T07:15:31.200Z,13.40
2023-02-12T07:16:31.403Z,12.50
2023-02-12T07:17:31.563Z,14.50
2023-02-12T07:18:31.733Z,15.40
2023-02-12T07:19:31.934Z,13.30
2023-02-12T07:20:32.097Z,13.40
2023-02-12T07:21:32.302Z,10.50
2023-02-12T07:22:32.440Z,14.00
2023-02-12T07:23:32.630Z,12.90
2023-02-12T07:24:32.775Z,19.40
2023-02-12T07:25:32.957Z,14.50
2023-02-12T07:26:33.128Z,17.20
2023-02-12T07:27:33.309Z,15.50
2023-02-12T07:28:33.794Z,16.70
2023-02-12T07:29:33.661Z,12.00
2023-02-12T07:30:33.844Z,11.20
2023-02-12T07:31:34.069Z,13.00
2023-02-12T07:32:34.138Z,13.00
2023-02-12T07:33:34.324Z,13.00
2023-02-12T07:34:34.485Z,16.40
2023-02-12T07:35:34.650Z,11.50
2023-02-12T07:36:34.807Z,20.20
2023-02-12T07:37:34.969Z,19.80
2023-02-12T07:38:35.139Z,11.90
2023-02-12T07:39:35.307Z,15.40
2023-02-12T07:40:35.493Z,13.10
2023-02-12T07:41:35.639Z,14.10
2023-02-12T07:42:35.810Z,20.30
2023-02-12T07:43:35.981Z,9.40
2023-02-12T07:44:36.182Z,14.90
2023-02-12T07:45:36.371Z,13.60
2023-02-12T07:46:36.508Z,11.50
2023-02-12T07:47:36.676Z,12.80
2023-02-12T07:48:36.851Z,14.70
2023-02-12T07:49:37.017Z,11.50
2023-02-12T07:50:37.171Z,11.70
2023-02-12T07:51:37.341Z,15.30
2023-02-12T07:52:37.491Z,12.20
2023-02-12T07:53:37.672Z,13.80
2023-02-12T07:54:37.850Z,14.60
2023-02-12T07:55:38.010Z,13.20
2023-02-12T07:56:38.169Z,11.60
2023-02-12T07:57:38.333Z,16.60
2023-02-12T07:58:38.493Z,13.90
2023-02-12T07:59:38.662Z,19.60
2023-02-12T08:00:38.814Z,16.60
2023-02-12T08:01:38.977Z,11.10
2023-02-12T08:02:39.194Z,15.10
2023-02-12T08:03:39.321Z,17.10
2023-02-12T08:04:39.524Z,18.20
2023-02-12T08:05:39.639Z,20.40
2023-02-12T08:06:39.800Z,13.40
2023-02-12T08:07:39.959Z,8.70
2023-02-12T08:08:40.215Z,11.00
2023-02-12T08:09:40.339Z,15.20
2023-02-12T08:10:40.509Z,11.30
2023-02-12T08:11:40.672Z,15.50
2023-02-12T08:12:40.834Z,16.40
2023-02-12T08:13:41.013Z,17.20
2023-02-12T08:14:41.158Z,13.10
2023-02-12T08:15:41.320Z,19.00
2023-02-12T08:16:41.523Z,12.10
2023-02-12T08:17:41.640Z,14.80
2023-02-12T08:18:41.822Z,13.60
2023-02-12T08:19:41.979Z,13.20
2023-02-12T08:20:42.159Z,16.10
2023-02-12T08:21:42.309Z,11.80
2023-02-12T08:22:42.468Z,11.10
2023-02-12T08:23:42.648Z,16.70
2023-02-12T08:24:42.798Z,16.00
2023-02-12T08:25:42.979Z,19.50
2023-02-12T08:26:43.146Z,11.50
2023-02-12T08:27:43.298Z,13.30
2023-02-12T08:28:43.475Z,15.80
2023-02-12T08:29:43.630Z,14.90
2023-02-12T08:30:43.822Z,13.00
2023-02-12T08:31:44.056Z,19.40
2023-02-12T08:32:44.119Z,16.30
2023-02-12T08:33:44.310Z,10.50
2023-02-12T08:34:44.452Z,12.90
2023-02-12T08:35:44.629Z,18.50
2023-02-12T08:36:44.779Z,20.10
2023-02-12T08:37:44.939Z,15.20
2023-02-12T08:38:45.120Z,17.10
2023-02-12T08:39:45.299Z,15.50
2023-02-12T08:40:45.513Z,15.50
2023-02-12T08:41:45.664Z,14.00
2023-02-12T08:42:45.836Z,17.70
2023-02-12T08:43:46.009Z,17.20
2023-02-12T08:44:46.188Z,16.80
2023-02-12T08:45:46.414Z,15.30
2023-02-12T08:46:46.537Z,18.70
2023-02-12T08:47:46.709Z,14.40
2023-02-12T08:48:46.866Z,16.40
2023-02-12T08:49:47.021Z,15.40
2023-02-12T08:50:47.195Z,12.70
2023-02-12T08:51:47.370Z,18.10
2023-02-12T08:52:47.516Z,17.40
2023-02-12T08:53:47.703Z,21.40
2023-02-12T08:54:47.843Z,20.10
2023-02-12T08:55:48.033Z,14.60
2023-02-12T08:56:48.177Z,17.20
2023-02-12T08:57:48.346Z,16.70
2023-02-12T08:58:48.502Z,16.30
2023-02-12T08:59:48.662Z,17.30
2023-02-12T09:00:48.848Z,16.30
2023-02-12T09:01:49.013Z,18.30
2023-02-12T09:02:49.294Z,15.90
2023-02-12T09:03:49.351Z,25.80
2023-02-12T09:04:49.514Z,16.80
2023-02-12T09:05:49.707Z,21.10
2023-02-12T09:06:49.863Z,22.50
2023-02-12T09:07:50.020Z,18.90
2023-02-12T09:08:50.177Z,17.90
2023-02-12T09:09:50.340Z,17.40
2023-02-12T09:10:50.514Z,16.60
2023-02-12T09:11:50.680Z,14.00
2023-02-12T09:12:50.839Z,15.40
2023-02-12T09:13:51.011Z,14.10
2023-02-12T09:14:51.170Z,18.10
2023-02-12T09:15:51.353Z,15.80
2023-02-12T09:16:51.566Z,15.80
2023-02-12T09:17:51.691Z,19.80
2023-02-12T09:18:51.868Z,15.30
2023-02-12T09:19:52.073Z,16.10
2023-02-12T09:20:52.215Z,12.40
2023-02-12T09:21:55.170Z,16.90
2023-02-12T09:22:52.539Z,18.00
2023-02-12T09:23:52.710Z,11.40
2023-02-12T09:24:52.871Z,16.80
2023-02-12T09:25:53.052Z,15.80
2023-02-12T09:26:53.204Z,16.10
2023-02-12T09:27:53.384Z,29.00
2023-02-12T09:28:53.559Z,34.90
2023-02-12T09:29:53.740Z,27.30
2023-02-12T09:30:53.988Z,35.00
2023-02-12T09:31:54.329Z,18.10
2023-02-12T09:32:54.266Z,22.10
2023-02-12T09:33:55.342Z,16.70
2023-02-12T09:34:54.609Z,13.70
2023-02-12T09:35:55.133Z,15.70
2023-02-12T09:36:54.939Z,14.30
2023-02-12T09:37:55.115Z,14.90
2023-02-12T09:38:55.272Z,14.40
2023-02-12T09:39:55.431Z,16.00
2023-02-12T09:40:55.593Z,14.20
2023-02-12T09:41:55.760Z,13.10
2023-02-12T09:42:55.932Z,20.10
2023-02-12T09:43:56.093Z,14.90
2023-02-12T09:44:56.243Z,14.80
2023-02-12T09:45:56.761Z,13.90
2023-02-12T09:46:56.574Z,14.20
2023-02-12T09:47:56.754Z,13.20
2023-02-12T09:48:56.904Z,15.40
2023-02-12T09:49:57.105Z,15.90
2023-02-12T09:50:57.271Z,19.20
2023-02-12T09:51:57.433Z,18.90
2023-02-12T09:52:57.602Z,14.10
2023-02-12T09:53:57.784Z,16.10
2023-02-12T09:54:57.937Z,17.90
2023-02-12T09:55:58.429Z,18.40
2023-02-12T09:56:58.264Z,15.00
2023-02-12T09:57:58.424Z,15.90
2023-02-12T09:58:58.610Z,17.30
2023-02-12T09:59:58.777Z,14.30
2023-02-12T10:00:58.951Z,19.20
2023-02-12T10:01:59.108Z,17.00
2023-02-12T10:02:59.266Z,14.80
2023-02-12T10:03:59.490Z,15.60
2023-02-12T10:05:01.935Z,13.70
2023-02-12T10:05:59.774Z,15.50
2023-02-12T10:06:59.924Z,15.30
2023-02-12T10:08:00.104Z,17.70
2023-02-12T10:09:00.253Z,15.60
2023-02-12T10:10:00.418Z,16.30
2023-02-12T10:11:00.594Z,16.50
2023-02-12T10:12:00.769Z,17.80
2023-02-12T10:13:00.917Z,15.80
2023-02-12T10:14:01.071Z,13.60
2023-02-12T10:15:01.304Z,16.10
2023-02-12T10:16:01.515Z,13.90
2023-02-12T10:17:01.626Z,16.00
2023-02-12T10:18:01.787Z,12.20
2023-02-12T10:19:01.969Z,13.10
2023-02-12T10:20:02.122Z,14.80
2023-02-12T10:21:02.318Z,11.90
2023-02-12T10:22:02.435Z,9.90
2023-02-12T10:23:02.641Z,12.90
2023-02-12T10:24:02.779Z,8.70
2023-02-12T10:25:02.984Z,11.10
2023-02-12T10:26:03.171Z,11.80
2023-02-12T10:27:03.329Z,9.80
2023-02-12T10:28:03.512Z,9.20
2023-02-12T10:29:03.668Z,8.10
2023-02-12T10:30:03.848Z,8.70
2023-02-12T10:31:04.169Z,7.70
2023-02-12T10:32:04.224Z,7.70
2023-02-12T10:33:04.416Z,9.30
2023-02-12T10:34:04.585Z,11.00
2023-02-12T10:35:04.746Z,8.70
2023-02-12T10:36:04.945Z,9.70
2023-02-12T10:37:05.095Z,5.90
2023-02-12T10:38:05.284Z,9.80
2023-02-12T10:39:05.453Z,6.90
2023-02-12T10:40:05.597Z,8.10
2023-02-12T10:41:05.794Z,9.80
2023-02-12T10:42:05.943Z,5.90
2023-02-12T10:43:06.137Z,7.40
2023-02-12T10:44:06.313Z,6.50
2023-02-12T10:45:06.501Z,6.60
2023-02-12T10:46:06.703Z,5.20
2023-02-12T10:47:06.844Z,5.70
2023-02-12T10:48:07.021Z,5.00
2023-02-12T10:49:07.211Z,6.00
2023-02-12T10:50:07.392Z,6.60
2023-02-12T10:51:07.602Z,8.70
2023-02-12T10:52:07.761Z,11.40
2023-02-12T10:53:07.942Z,12.80
2023-02-12T10:54:08.090Z,5.40
2023-02-12T10:55:08.289Z,8.00
2023-02-12T10:56:08.479Z,9.70
2023-02-12T10:57:08.630Z,7.90
2023-02-12T10:58:08.816Z,8.20
2023-02-12T10:59:09.001Z,8.60
2023-02-12T11:00:09.159Z,8.30
2023-02-12T11:01:09.351Z,7.80
2023-02-12T11:02:09.511Z,8.20
2023-02-12T11:03:09.701Z,9.90
2023-02-12T11:04:09.841Z,11.80
2023-02-12T11:05:10.114Z,9.50
2023-02-12T11:06:10.203Z,10.80
2023-02-12T11:07:10.353Z,10.50
2023-02-12T11:08:10.513Z,10.30
2023-02-12T11:09:10.670Z,7.60
2023-02-12T11:10:10.852Z,8.60
2023-02-12T11:11:11.064Z,13.10
2023-02-12T11:12:11.200Z,10.50
2023-02-12T11:13:11.361Z,12.40
2023-02-12T11:14:11.540Z,7.70
2023-02-12T11:15:11.720Z,9.90
2023-02-12T11:16:11.958Z,12.40
2023-02-12T11:17:12.092Z,9.50
2023-02-12T11:18:12.271Z,10.70
2023-02-12T11:19:12.471Z,11.90
2023-02-12T11:20:12.649Z,10.60
2023-02-12T11:21:12.819Z,13.50
2023-02-12T11:22:12.960Z,10.90
2023-02-12T11:23:13.176Z,11.40
2023-02-12T11:24:13.321Z,10.90
2023-02-12T11:25:13.480Z,10.60
2023-02-12T11:26:13.663Z,10.10
2023-02-12T11:27:13.821Z,7.60
2023-02-12T11:28:14.168Z,8.50
2023-02-12T11:29:14.284Z,10.90
2023-02-12T11:30:14.350Z,8.20
2023-02-12T11:31:14.623Z,8.80
2023-02-12T11:32:14.727Z,10.60
2023-02-12T11:33:14.879Z,11.00
2023-02-12T11:34:15.038Z,9.40
2023-02-12T11:35:15.238Z,9.90
2023-02-12T11:36:15.421Z,9.50
2023-02-12T11:37:15.580Z,4.20
2023-02-12T11:38:15.774Z,8.10
2023-02-12T11:39:15.941Z,6.40
2023-02-12T11:40:16.142Z,6.60
2023-02-12T11:41:16.323Z,6.10
2023-02-12T11:42:16.504Z,4.70
2023-02-12T11:43:16.683Z,7.50
2023-02-12T11:44:16.873Z,7.40
2023-02-12T11:45:17.076Z,5.30
2023-02-12T11:46:17.266Z,5.80
2023-02-12T11:47:17.436Z,5.30
2023-02-12T11:48:17.623Z,13.80
2023-02-12T11:49:17.809Z,9.10
2023-02-12T11:50:17.965Z,6.90
2023-02-12T11:51:18.165Z,4.50
2023-02-12T11:52:18.348Z,6.00
2023-02-12T11:53:18.554Z,7.70
2023-02-12T11:54:18.693Z,7.10
2023-02-12T11:55:18.884Z,8.20
2023-02-12T11:56:19.053Z,4.80
2023-02-12T11:57:19.203Z,7.30
2023-02-12T11:58:19.383Z,8.30
2023-02-12T11:59:19.572Z,7.40
2023-02-12T12:00:19.767Z,7.40
2023-02-12T12:01:19.970Z,5.80
2023-02-12T12:02:20.161Z,9.70
2023-02-12T12:03:20.373Z,6.50
2023-02-12T12:04:20.441Z,8.80
2023-02-12T12:05:20.629Z,7.30
2023-02-12T12:06:20.836Z,6.40
2023-02-12T12:07:20.973Z,10.00
2023-02-12T12:08:21.142Z,4.30
2023-02-12T12:09:21.358Z,7.50
2023-02-12T12:10:21.490Z,7.90
2023-02-12T12:11:21.681Z,7.20
2023-02-12T12:12:21.827Z,6.50
2023-02-12T12:13:22.026Z,7.70
2023-02-12T12:14:22.221Z,5.80
2023-02-12T12:15:22.361Z,11.50
2023-02-12T12:16:22.590Z,7.60
2023-02-12T12:17:22.712Z,9.20
2023-02-12T12:18:22.879Z,6.30
2023-02-12T12:19:23.090Z,6.40
2023-02-12T12:20:23.221Z,8.20
2023-02-12T12:21:23.413Z,7.50
2023-02-12T12:22:23.601Z,9.50
2023-02-12T12:23:23.782Z,6.50
2023-02-12T12:24:23.993Z,8.00
2023-02-12T12:25:24.136Z,6.50
2023-02-12T12:26:24.318Z,5.10
2023-02-12T12:27:24.546Z,7.00
2023-02-12T12:28:24.768Z,9.40
2023-02-12T12:29:24.842Z,4.50
2023-02-12T12:30:24.991Z,6.70
2023-02-12T12:31:25.213Z,7.40
2023-02-12T12:32:25.350Z,7.80
2023-02-12T12:33:25.534Z,8.50
2023-02-12T12:34:25.731Z,6.70
2023-02-12T12:35:25.914Z,8.30
2023-02-12T12:36:26.040Z,7.10
2023-02-12T12:37:26.220Z,8.30
2023-02-12T12:38:26.407Z,9.10
2023-02-12T12:39:26.602Z,5.90
2023-02-12T12:40:26.756Z,8.10
2023-02-12T12:41:26.942Z,7.80
2023-02-12T12:42:28.386Z,5.60
2023-02-12T12:43:27.302Z,8.40
2023-02-12T12:44:27.495Z,6.20
2023-02-12T12:45:27.652Z,7.00
2023-02-12T12:46:27.810Z,7.00
2023-02-12T12:47:28.003Z,6.90
2023-02-12T12:48:28.173Z,6.20
2023-02-12T12:49:30.528Z,6.10
2023-02-12T12:50:28.517Z,6.30
2023-02-12T12:51:28.707Z,4.90
2023-02-12T12:52:28.886Z,8.80
2023-02-12T12:53:29.075Z,4.40
2023-02-12T12:54:29.272Z,5.10
2023-02-12T12:55:29.435Z,8.80
2023-02-12T12:56:29.612Z,5.20
2023-02-12T12:57:29.819Z,8.60
2023-02-12T12:58:29.957Z,6.10
2023-02-12T12:59:30.142Z,6.30
2023-02-12T13:00:30.333Z,4.90
2023-02-12T13:01:30.654Z,5.90
2023-02-12T13:02:30.741Z,4.60